Terminal Aerodrome Forecast
Issued by NWS Twin Cities, MN

Home | Current Version | Previous Version | Graphics & Text | Print | Product List | Glossary On
Versions: 1 2 3 4 5 6 7 8 9 10 11 12 13 14 15 16 17 18 19 20 21 22 23 24 25
000
FTUS43 KMPX 251736
TAFMSP
TAF
KMSP 251736Z 2518/2624 23012G20KT P6SM SCT015 BKN025
     FM252300 24010KT P6SM VCSH SCT025 BKN040
     FM260300 22007KT P6SM FEW020 OVC050
     FM260600 VRB03KT P6SM OVC020
     FM260900 VRB03KT 2SM BR OVC004
     FM261400 29003KT 6SM BR BKN008 OVC015
     FM261600 32005KT P6SM BKN020
     FM261900 33005KT P6SM BKN050=

USA.gov is the U.S. government's official web portal to all federal, state and local government web resources and services.